sensor_id;sensor_type;location;lat;lon;timestamp;P1;durP1;ratioP1;P2;durP2;ratioP2
41201;SDS011;26936;50.524;8.684;2024-03-06T00:01:02;25.10;;;13.65;;
41201;SDS011;26936;50.524;8.684;2024-03-06T00:03:28;25.80;;;13.75;;
41201;SDS011;26936;50.524;8.684;2024-03-06T00:05:53;23.40;;;12.63;;
41201;SDS011;26936;50.524;8.684;2024-03-06T00:08:18;23.83;;;13.57;;
41201;SDS011;26936;50.524;8.684;2024-03-06T00:10:44;27.42;;;12.55;;
41201;SDS011;26936;50.524;8.684;2024-03-06T00:13:10;22.15;;;12.45;;
41201;SDS011;26936;50.524;8.684;2024-03-06T00:15:35;25.63;;;13.35;;
41201;SDS011;26936;50.524;8.684;2024-03-06T00:18:00;24.83;;;13.50;;
41201;SDS011;26936;50.524;8.684;2024-03-06T00:20:26;28.20;;;13.65;;
41201;SDS011;26936;50.524;8.684;2024-03-06T00:22:51;27.55;;;14.43;;
41201;SDS011;26936;50.524;8.684;2024-03-06T00:25:17;25.77;;;13.02;;
41201;SDS011;26936;50.524;8.684;2024-03-06T00:27:42;22.40;;;12.75;;
41201;SDS011;26936;50.524;8.684;2024-03-06T00:30:07;25.27;;;12.25;;
41201;SDS011;26936;50.524;8.684;2024-03-06T00:32:33;21.08;;;12.00;;
41201;SDS011;26936;50.524;8.684;2024-03-06T00:34:58;22.73;;;12.35;;
41201;SDS011;26936;50.524;8.684;2024-03-06T00:37:24;20.77;;;12.40;;
41201;SDS011;26936;50.524;8.684;2024-03-06T00:39:49;22.85;;;12.55;;
41201;SDS011;26936;50.524;8.684;2024-03-06T00:42:15;24.50;;;12.68;;
41201;SDS011;26936;50.524;8.684;2024-03-06T00:44:40;19.80;;;11.13;;
41201;SDS011;26936;50.524;8.684;2024-03-06T00:47:06;20.85;;;11.65;;
41201;SDS011;26936;50.524;8.684;2024-03-06T00:49:31;22.20;;;12.82;;
41201;SDS011;26936;50.524;8.684;2024-03-06T00:51:56;22.60;;;12.10;;
41201;SDS011;26936;50.524;8.684;2024-03-06T00:54:22;23.65;;;12.65;;
41201;SDS011;26936;50.524;8.684;2024-03-06T00:56:47;23.30;;;12.87;;
41201;SDS011;26936;50.524;8.684;2024-03-06T00:59:12;27.20;;;13.38;;
41201;SDS011;26936;50.524;8.684;2024-03-06T01:01:38;22.30;;;12.63;;
41201;SDS011;26936;50.524;8.684;2024-03-06T01:04:03;23.17;;;12.55;;
41201;SDS011;26936;50.524;8.684;2024-03-06T01:06:28;23.60;;;13.18;;
41201;SDS011;26936;50.524;8.684;2024-03-06T01:08:54;24.90;;;13.70;;
41201;SDS011;26936;50.524;8.684;2024-03-06T01:11:19;24.10;;;12.75;;
41201;SDS011;26936;50.524;8.684;2024-03-06T01:13:45;22.63;;;12.95;;
41201;SDS011;26936;50.524;8.684;2024-03-06T01:16:10;22.73;;;13.63;;
41201;SDS011;26936;50.524;8.684;2024-03-06T01:18:35;26.80;;;14.95;;
41201;SDS011;26936;50.524;8.684;2024-03-06T01:21:01;26.85;;;14.98;;
41201;SDS011;26936;50.524;8.684;2024-03-06T01:23:27;23.70;;;13.27;;
41201;SDS011;26936;50.524;8.684;2024-03-06T01:25:52;25.33;;;14.17;;
41201;SDS011;26936;50.524;8.684;2024-03-06T01:28:18;24.88;;;14.30;;
41201;SDS011;26936;50.524;8.684;2024-03-06T01:30:43;25.58;;;14.50;;
41201;SDS011;26936;50.524;8.684;2024-03-06T01:33:08;24.63;;;13.85;;
41201;SDS011;26936;50.524;8.684;2024-03-06T01:35:34;24.13;;;13.13;;
41201;SDS011;26936;50.524;8.684;2024-03-06T01:38:00;22.10;;;12.97;;
41201;SDS011;26936;50.524;8.684;2024-03-06T01:40:26;24.40;;;13.73;;
41201;SDS011;26936;50.524;8.684;2024-03-06T01:42:52;27.10;;;14.15;;
41201;SDS011;26936;50.524;8.684;2024-03-06T01:45:17;25.55;;;13.52;;
41201;SDS011;26936;50.524;8.684;2024-03-06T01:47:43;28.97;;;13.80;;
41201;SDS011;26936;50.524;8.684;2024-03-06T01:50:08;25.65;;;13.38;;
41201;SDS011;26936;50.524;8.684;2024-03-06T01:52:35;24.73;;;13.98;;
41201;SDS011;26936;50.524;8.684;2024-03-06T01:55:01;25.10;;;13.68;;
41201;SDS011;26936;50.524;8.684;2024-03-06T01:57:27;26.90;;;15.23;;
41201;SDS011;26936;50.524;8.684;2024-03-06T01:59:54;25.60;;;14.38;;
41201;SDS011;26936;50.524;8.684;2024-03-06T02:02:19;24.27;;;13.32;;
41201;SDS011;26936;50.524;8.684;2024-03-06T02:04:45;29.42;;;14.77;;
41201;SDS011;26936;50.524;8.684;2024-03-06T02:07:11;25.55;;;14.25;;
41201;SDS011;26936;50.524;8.684;2024-03-06T02:09:39;27.52;;;14.40;;
41201;SDS011;26936;50.524;8.684;2024-03-06T02:12:07;24.77;;;13.23;;
41201;SDS011;26936;50.524;8.684;2024-03-06T02:14:34;25.17;;;14.23;;
41201;SDS011;26936;50.524;8.684;2024-03-06T02:17:00;26.77;;;14.68;;
41201;SDS011;26936;50.524;8.684;2024-03-06T02:19:36;27.13;;;13.77;;
41201;SDS011;26936;50.524;8.684;2024-03-06T02:22:02;24.73;;;13.30;;
41201;SDS011;26936;50.524;8.684;2024-03-06T02:24:27;24.63;;;13.40;;
41201;SDS011;26936;50.524;8.684;2024-03-06T02:26:53;28.73;;;14.00;;
41201;SDS011;26936;50.524;8.684;2024-03-06T02:29:19;23.23;;;13.55;;
41201;SDS011;26936;50.524;8.684;2024-03-06T02:31:44;28.67;;;14.93;;
41201;SDS011;26936;50.524;8.684;2024-03-06T02:34:09;22.77;;;12.67;;
41201;SDS011;26936;50.524;8.684;2024-03-06T02:36:34;28.30;;;14.48;;
41201;SDS011;26936;50.524;8.684;2024-03-06T02:39:01;23.40;;;13.52;;
41201;SDS011;26936;50.524;8.684;2024-03-06T02:41:26;22.40;;;12.63;;
41201;SDS011;26936;50.524;8.684;2024-03-06T02:43:52;27.40;;;13.70;;
41201;SDS011;26936;50.524;8.684;2024-03-06T02:46:17;22.30;;;13.35;;
41201;SDS011;26936;50.524;8.684;2024-03-06T02:48:42;25.13;;;12.93;;
41201;SDS011;26936;50.524;8.684;2024-03-06T02:51:07;28.90;;;13.80;;
41201;SDS011;26936;50.524;8.684;2024-03-06T02:53:33;29.23;;;13.80;;
41201;SDS011;26936;50.524;8.684;2024-03-06T02:55:58;21.13;;;12.83;;
41201;SDS011;26936;50.524;8.684;2024-03-06T02:58:23;23.77;;;13.75;;
41201;SDS011;26936;50.524;8.684;2024-03-06T03:00:48;31.37;;;15.10;;
41201;SDS011;26936;50.524;8.684;2024-03-06T03:03:14;28.70;;;14.20;;
41201;SDS011;26936;50.524;8.684;2024-03-06T03:05:39;25.60;;;15.10;;
41201;SDS011;26936;50.524;8.684;2024-03-06T03:08:05;27.80;;;14.73;;
41201;SDS011;26936;50.524;8.684;2024-03-06T03:10:31;28.38;;;13.65;;
41201;SDS011;26936;50.524;8.684;2024-03-06T03:12:56;27.63;;;14.43;;
41201;SDS011;26936;50.524;8.684;2024-03-06T03:15:22;28.98;;;16.70;;
41201;SDS011;26936;50.524;8.684;2024-03-06T03:17:47;28.30;;;14.95;;
41201;SDS011;26936;50.524;8.684;2024-03-06T03:20:12;31.25;;;15.95;;
41201;SDS011;26936;50.524;8.684;2024-03-06T03:22:38;27.85;;;14.65;;
41201;SDS011;26936;50.524;8.684;2024-03-06T03:25:11;28.63;;;15.15;;
41201;SDS011;26936;50.524;8.684;2024-03-06T03:27:37;23.90;;;14.18;;
41201;SDS011;26936;50.524;8.684;2024-03-06T03:30:06;28.35;;;15.35;;
41201;SDS011;26936;50.524;8.684;2024-03-06T03:32:33;28.88;;;14.85;;
41201;SDS011;26936;50.524;8.684;2024-03-06T03:34:58;28.23;;;14.40;;
41201;SDS011;26936;50.524;8.684;2024-03-06T03:37:24;28.27;;;13.73;;
41201;SDS011;26936;50.524;8.684;2024-03-06T03:39:49;29.60;;;14.27;;
41201;SDS011;26936;50.524;8.684;2024-03-06T03:42:14;30.10;;;14.60;;
41201;SDS011;26936;50.524;8.684;2024-03-06T03:44:40;25.77;;;14.20;;
41201;SDS011;26936;50.524;8.684;2024-03-06T03:47:05;25.42;;;14.00;;
41201;SDS011;26936;50.524;8.684;2024-03-06T03:49:31;26.75;;;13.50;;
41201;SDS011;26936;50.524;8.684;2024-03-06T03:51:56;24.33;;;12.98;;
41201;SDS011;26936;50.524;8.684;2024-03-06T03:54:21;25.33;;;12.52;;
41201;SDS011;26936;50.524;8.684;2024-03-06T03:56:46;25.27;;;13.00;;
41201;SDS011;26936;50.524;8.684;2024-03-06T03:59:12;27.00;;;13.85;;
41201;SDS011;26936;50.524;8.684;2024-03-06T04:01:38;30.08;;;13.13;;
41201;SDS011;26936;50.524;8.684;2024-03-06T04:04:03;26.57;;;12.23;;
41201;SDS011;26936;50.524;8.684;2024-03-06T04:06:29;23.33;;;12.15;;
41201;SDS011;26936;50.524;8.684;2024-03-06T04:08:54;21.80;;;11.77;;
41201;SDS011;26936;50.524;8.684;2024-03-06T04:11:19;20.70;;;11.40;;
41201;SDS011;26936;50.524;8.684;2024-03-06T04:13:45;18.33;;;10.63;;
41201;SDS011;26936;50.524;8.684;2024-03-06T04:16:15;25.05;;;13.00;;
41201;SDS011;26936;50.524;8.684;2024-03-06T04:18:41;23.40;;;12.20;;
41201;SDS011;26936;50.524;8.684;2024-03-06T04:21:06;23.93;;;12.00;;
41201;SDS011;26936;50.524;8.684;2024-03-06T04:23:32;20.02;;;11.27;;
41201;SDS011;26936;50.524;8.684;2024-03-06T04:26:01;22.25;;;11.18;;
41201;SDS011;26936;50.524;8.684;2024-03-06T04:28:27;21.30;;;11.05;;
41201;SDS011;26936;50.524;8.684;2024-03-06T04:30:52;22.08;;;11.88;;
41201;SDS011;26936;50.524;8.684;2024-03-06T04:33:19;27.05;;;13.73;;
41201;SDS011;26936;50.524;8.684;2024-03-06T04:35:45;25.55;;;13.60;;
41201;SDS011;26936;50.524;8.684;2024-03-06T04:38:10;22.08;;;11.90;;
41201;SDS011;26936;50.524;8.684;2024-03-06T04:40:35;26.92;;;13.90;;
41201;SDS011;26936;50.524;8.684;2024-03-06T04:43:01;24.90;;;12.97;;
41201;SDS011;26936;50.524;8.684;2024-03-06T04:45:26;26.10;;;13.65;;
41201;SDS011;26936;50.524;8.684;2024-03-06T04:47:53;24.20;;;12.82;;
41201;SDS011;26936;50.524;8.684;2024-03-06T04:50:19;29.63;;;13.63;;
41201;SDS011;26936;50.524;8.684;2024-03-06T04:52:44;26.00;;;14.13;;
41201;SDS011;26936;50.524;8.684;2024-03-06T04:55:10;27.13;;;13.57;;
41201;SDS011;26936;50.524;8.684;2024-03-06T04:57:36;29.60;;;14.73;;
41201;SDS011;26936;50.524;8.684;2024-03-06T05:00:02;28.00;;;15.40;;
41201;SDS011;26936;50.524;8.684;2024-03-06T05:02:31;32.63;;;16.45;;
41201;SDS011;26936;50.524;8.684;2024-03-06T05:04:59;33.45;;;15.70;;
41201;SDS011;26936;50.524;8.684;2024-03-06T05:07:25;36.95;;;17.15;;
41201;SDS011;26936;50.524;8.684;2024-03-06T05:09:51;31.33;;;15.70;;
41201;SDS011;26936;50.524;8.684;2024-03-06T05:12:16;32.93;;;16.27;;
41201;SDS011;26936;50.524;8.684;2024-03-06T05:14:41;29.93;;;16.37;;
41201;SDS011;26936;50.524;8.684;2024-03-06T05:17:06;30.80;;;16.40;;
41201;SDS011;26936;50.524;8.684;2024-03-06T05:19:32;31.17;;;15.43;;
41201;SDS011;26936;50.524;8.684;2024-03-06T05:21:57;27.80;;;14.33;;
41201;SDS011;26936;50.524;8.684;2024-03-06T05:24:23;34.35;;;16.98;;
41201;SDS011;26936;50.524;8.684;2024-03-06T05:26:49;31.73;;;15.90;;
41201;SDS011;26936;50.524;8.684;2024-03-06T05:29:14;33.05;;;16.08;;
41201;SDS011;26936;50.524;8.684;2024-03-06T05:31:39;33.23;;;16.27;;
41201;SDS011;26936;50.524;8.684;2024-03-06T05:34:04;38.57;;;18.60;;
41201;SDS011;26936;50.524;8.684;2024-03-06T05:36:30;40.92;;;17.25;;
41201;SDS011;26936;50.524;8.684;2024-03-06T05:38:55;41.97;;;18.57;;
41201;SDS011;26936;50.524;8.684;2024-03-06T05:41:20;42.57;;;19.20;;
41201;SDS011;26936;50.524;8.684;2024-03-06T05:43:46;50.67;;;20.15;;
41201;SDS011;26936;50.524;8.684;2024-03-06T05:46:11;56.80;;;23.23;;
41201;SDS011;26936;50.524;8.684;2024-03-06T05:48:36;53.80;;;21.38;;
41201;SDS011;26936;50.524;8.684;2024-03-06T05:51:02;56.17;;;22.77;;
41201;SDS011;26936;50.524;8.684;2024-03-06T05:53:28;50.00;;;21.95;;
41201;SDS011;26936;50.524;8.684;2024-03-06T05:55:53;57.45;;;22.27;;
41201;SDS011;26936;50.524;8.684;2024-03-06T05:58:19;55.53;;;23.38;;
41201;SDS011;26936;50.524;8.684;2024-03-06T06:00:45;58.80;;;21.38;;
41201;SDS011;26936;50.524;8.684;2024-03-06T06:03:13;63.25;;;22.90;;
41201;SDS011;26936;50.524;8.684;2024-03-06T06:05:38;64.93;;;22.98;;
41201;SDS011;26936;50.524;8.684;2024-03-06T06:08:04;67.75;;;24.90;;
41201;SDS011;26936;50.524;8.684;2024-03-06T06:10:30;70.35;;;26.95;;
41201;SDS011;26936;50.524;8.684;2024-03-06T06:12:55;64.38;;;25.73;;
41201;SDS011;26936;50.524;8.684;2024-03-06T06:15:21;71.95;;;27.10;;
41201;SDS011;26936;50.524;8.684;2024-03-06T06:17:47;68.88;;;26.67;;
41201;SDS011;26936;50.524;8.684;2024-03-06T06:20:13;71.50;;;25.23;;
41201;SDS011;26936;50.524;8.684;2024-03-06T06:22:43;63.35;;;23.40;;
41201;SDS011;26936;50.524;8.684;2024-03-06T06:25:08;58.53;;;22.58;;
41201;SDS011;26936;50.524;8.684;2024-03-06T06:27:35;74.97;;;23.40;;
41201;SDS011;26936;50.524;8.684;2024-03-06T06:30:01;90.43;;;25.08;;
41201;SDS011;26936;50.524;8.684;2024-03-06T06:32:26;72.25;;;24.75;;
41201;SDS011;26936;50.524;8.684;2024-03-06T06:34:51;107.07;;;27.03;;
41201;SDS011;26936;50.524;8.684;2024-03-06T06:37:17;99.40;;;24.30;;
41201;SDS011;26936;50.524;8.684;2024-03-06T06:39:44;112.40;;;27.67;;
41201;SDS011;26936;50.524;8.684;2024-03-06T06:42:09;100.22;;;25.25;;
41201;SDS011;26936;50.524;8.684;2024-03-06T06:44:35;71.60;;;25.60;;
41201;SDS011;26936;50.524;8.684;2024-03-06T06:47:01;68.35;;;24.70;;
41201;SDS011;26936;50.524;8.684;2024-03-06T06:49:27;87.50;;;26.48;;
41201;SDS011;26936;50.524;8.684;2024-03-06T06:51:52;84.73;;;26.73;;
41201;SDS011;26936;50.524;8.684;2024-03-06T06:54:17;74.67;;;22.23;;
41201;SDS011;26936;50.524;8.684;2024-03-06T06:56:43;70.13;;;23.43;;
41201;SDS011;26936;50.524;8.684;2024-03-06T06:59:08;56.17;;;22.97;;
41201;SDS011;26936;50.524;8.684;2024-03-06T07:01:33;72.67;;;25.37;;
41201;SDS011;26936;50.524;8.684;2024-03-06T07:03:59;62.63;;;23.27;;
41201;SDS011;26936;50.524;8.684;2024-03-06T07:06:24;92.65;;;22.98;;
41201;SDS011;26936;50.524;8.684;2024-03-06T07:08:50;90.15;;;24.00;;
41201;SDS011;26936;50.524;8.684;2024-03-06T07:11:16;223.30;;;30.88;;
41201;SDS011;26936;50.524;8.684;2024-03-06T07:13:42;123.60;;;25.73;;
41201;SDS011;26936;50.524;8.684;2024-03-06T07:16:08;77.13;;;25.92;;
41201;SDS011;26936;50.524;8.684;2024-03-06T07:18:34;100.93;;;25.45;;
41201;SDS011;26936;50.524;8.684;2024-03-06T07:20:59;83.43;;;25.58;;
41201;SDS011;26936;50.524;8.684;2024-03-06T07:23:25;60.60;;;24.47;;
41201;SDS011;26936;50.524;8.684;2024-03-06T07:25:50;59.70;;;23.03;;
41201;SDS011;26936;50.524;8.684;2024-03-06T07:28:15;66.53;;;24.95;;
41201;SDS011;26936;50.524;8.684;2024-03-06T07:30:40;64.87;;;22.23;;
41201;SDS011;26936;50.524;8.684;2024-03-06T07:33:06;59.87;;;24.37;;
41201;SDS011;26936;50.524;8.684;2024-03-06T07:35:32;71.82;;;25.60;;
41201;SDS011;26936;50.524;8.684;2024-03-06T07:37:57;75.97;;;23.35;;
41201;SDS011;26936;50.524;8.684;2024-03-06T07:40:23;86.30;;;23.85;;
41201;SDS011;26936;50.524;8.684;2024-03-06T07:42:48;96.32;;;25.20;;
41201;SDS011;26936;50.524;8.684;2024-03-06T07:45:14;85.50;;;23.75;;
41201;SDS011;26936;50.524;8.684;2024-03-06T07:47:39;95.50;;;24.38;;
41201;SDS011;26936;50.524;8.684;2024-03-06T07:50:06;85.45;;;26.75;;
41201;SDS011;26936;50.524;8.684;2024-03-06T07:52:32;70.78;;;27.00;;
41201;SDS011;26936;50.524;8.684;2024-03-06T07:54:57;64.65;;;24.75;;
41201;SDS011;26936;50.524;8.684;2024-03-06T07:57:23;55.83;;;24.40;;
41201;SDS011;26936;50.524;8.684;2024-03-06T07:59:48;56.97;;;25.02;;
41201;SDS011;26936;50.524;8.684;2024-03-06T08:02:14;54.05;;;22.67;;
41201;SDS011;26936;50.524;8.684;2024-03-06T08:04:39;54.63;;;23.95;;
41201;SDS011;26936;50.524;8.684;2024-03-06T08:07:05;61.83;;;23.33;;
41201;SDS011;26936;50.524;8.684;2024-03-06T08:09:30;62.47;;;23.65;;
41201;SDS011;26936;50.524;8.684;2024-03-06T08:11:56;76.47;;;24.70;;
41201;SDS011;26936;50.524;8.684;2024-03-06T08:14:21;61.33;;;23.47;;
41201;SDS011;26936;50.524;8.684;2024-03-06T08:16:47;52.30;;;23.67;;
41201;SDS011;26936;50.524;8.684;2024-03-06T08:19:12;48.75;;;22.55;;
41201;SDS011;26936;50.524;8.684;2024-03-06T08:21:37;55.17;;;25.07;;
41201;SDS011;26936;50.524;8.684;2024-03-06T08:24:03;48.15;;;22.83;;
41201;SDS011;26936;50.524;8.684;2024-03-06T08:26:28;50.17;;;22.60;;
41201;SDS011;26936;50.524;8.684;2024-03-06T08:28:54;46.90;;;20.93;;
41201;SDS011;26936;50.524;8.684;2024-03-06T08:31:19;44.78;;;20.23;;
41201;SDS011;26936;50.524;8.684;2024-03-06T08:33:46;39.33;;;19.75;;
41201;SDS011;26936;50.524;8.684;2024-03-06T08:36:12;44.40;;;19.77;;
41201;SDS011;26936;50.524;8.684;2024-03-06T08:38:38;37.42;;;19.65;;
41201;SDS011;26936;50.524;8.684;2024-03-06T08:41:05;41.33;;;19.77;;
41201;SDS011;26936;50.524;8.684;2024-03-06T08:43:31;38.05;;;19.45;;
41201;SDS011;26936;50.524;8.684;2024-03-06T08:45:56;39.28;;;19.58;;
41201;SDS011;26936;50.524;8.684;2024-03-06T08:48:22;39.30;;;18.77;;
41201;SDS011;26936;50.524;8.684;2024-03-06T08:50:47;35.25;;;18.23;;
41201;SDS011;26936;50.524;8.684;2024-03-06T08:53:12;39.43;;;18.90;;
41201;SDS011;26936;50.524;8.684;2024-03-06T08:55:39;40.63;;;20.27;;
41201;SDS011;26936;50.524;8.684;2024-03-06T08:58:04;42.53;;;19.70;;
41201;SDS011;26936;50.524;8.684;2024-03-06T09:00:29;38.60;;;19.53;;
41201;SDS011;26936;50.524;8.684;2024-03-06T09:02:54;35.53;;;18.33;;
41201;SDS011;26936;50.524;8.684;2024-03-06T09:05:20;40.90;;;20.60;;
41201;SDS011;26936;50.524;8.684;2024-03-06T09:07:46;39.95;;;19.85;;
41201;SDS011;26936;50.524;8.684;2024-03-06T09:10:12;40.10;;;18.77;;
41201;SDS011;26936;50.524;8.684;2024-03-06T09:12:38;37.03;;;19.45;;
41201;SDS011;26936;50.524;8.684;2024-03-06T09:15:04;38.97;;;19.52;;
41201;SDS011;26936;50.524;8.684;2024-03-06T09:17:32;38.65;;;18.77;;
41201;SDS011;26936;50.524;8.684;2024-03-06T09:19:57;38.97;;;19.88;;
41201;SDS011;26936;50.524;8.684;2024-03-06T09:22:23;39.75;;;19.33;;
41201;SDS011;26936;50.524;8.684;2024-03-06T09:24:48;38.95;;;19.42;;
41201;SDS011;26936;50.524;8.684;2024-03-06T09:27:14;34.70;;;19.00;;
41201;SDS011;26936;50.524;8.684;2024-03-06T09:29:41;40.78;;;20.15;;
41201;SDS011;26936;50.524;8.684;2024-03-06T09:32:07;37.38;;;19.63;;
41201;SDS011;26936;50.524;8.684;2024-03-06T09:34:32;39.58;;;19.63;;
41201;SDS011;26936;50.524;8.684;2024-03-06T09:36:57;38.55;;;18.85;;
41201;SDS011;26936;50.524;8.684;2024-03-06T09:39:22;40.42;;;19.55;;
41201;SDS011;26936;50.524;8.684;2024-03-06T09:41:48;40.38;;;20.02;;
41201;SDS011;26936;50.524;8.684;2024-03-06T09:44:15;39.53;;;20.27;;
41201;SDS011;26936;50.524;8.684;2024-03-06T09:46:44;40.72;;;20.38;;
41201;SDS011;26936;50.524;8.684;2024-03-06T09:49:10;42.05;;;20.70;;
41201;SDS011;26936;50.524;8.684;2024-03-06T09:51:38;37.92;;;19.83;;
41201;SDS011;26936;50.524;8.684;2024-03-06T09:54:07;35.25;;;18.65;;
41201;SDS011;26936;50.524;8.684;2024-03-06T09:56:33;37.35;;;19.10;;
41201;SDS011;26936;50.524;8.684;2024-03-06T09:58:59;37.53;;;18.63;;
41201;SDS011;26936;50.524;8.684;2024-03-06T10:01:24;37.42;;;19.30;;
41201;SDS011;26936;50.524;8.684;2024-03-06T10:03:51;40.22;;;19.05;;
41201;SDS011;26936;50.524;8.684;2024-03-06T10:06:16;37.60;;;18.88;;
41201;SDS011;26936;50.524;8.684;2024-03-06T10:08:42;35.08;;;18.75;;
41201;SDS011;26936;50.524;8.684;2024-03-06T10:11:10;38.20;;;18.77;;
41201;SDS011;26936;50.524;8.684;2024-03-06T10:13:36;36.70;;;19.15;;
41201;SDS011;26936;50.524;8.684;2024-03-06T10:16:02;36.97;;;18.80;;
41201;SDS011;26936;50.524;8.684;2024-03-06T10:18:29;33.03;;;16.77;;
41201;SDS011;26936;50.524;8.684;2024-03-06T10:20:56;35.97;;;18.38;;
41201;SDS011;26936;50.524;8.684;2024-03-06T10:23:22;38.58;;;18.58;;
41201;SDS011;26936;50.524;8.684;2024-03-06T10:25:48;36.92;;;17.70;;
41201;SDS011;26936;50.524;8.684;2024-03-06T10:28:18;34.95;;;17.52;;
41201;SDS011;26936;50.524;8.684;2024-03-06T10:30:44;35.40;;;17.40;;
41201;SDS011;26936;50.524;8.684;2024-03-06T10:33:14;36.03;;;18.33;;
41201;SDS011;26936;50.524;8.684;2024-03-06T10:35:41;33.83;;;16.50;;
41201;SDS011;26936;50.524;8.684;2024-03-06T10:38:09;34.28;;;17.15;;
41201;SDS011;26936;50.524;8.684;2024-03-06T10:40:36;31.83;;;16.45;;
41201;SDS011;26936;50.524;8.684;2024-03-06T10:43:03;32.58;;;16.27;;
41201;SDS011;26936;50.524;8.684;2024-03-06T10:45:36;32.95;;;16.80;;
41201;SDS011;26936;50.524;8.684;2024-03-06T10:48:08;35.47;;;16.27;;
41201;SDS011;26936;50.524;8.684;2024-03-06T10:50:40;30.88;;;16.15;;
41201;SDS011;26936;50.524;8.684;2024-03-06T10:53:09;32.10;;;15.68;;
41201;SDS011;26936;50.524;8.684;2024-03-06T10:55:35;32.83;;;15.98;;
41201;SDS011;26936;50.524;8.684;2024-03-06T10:58:01;35.22;;;17.15;;
41201;SDS011;26936;50.524;8.684;2024-03-06T11:00:30;32.60;;;15.05;;
41201;SDS011;26936;50.524;8.684;2024-03-06T11:02:55;30.63;;;15.07;;
41201;SDS011;26936;50.524;8.684;2024-03-06T11:05:23;31.80;;;15.20;;
41201;SDS011;26936;50.524;8.684;2024-03-06T11:07:49;28.60;;;14.60;;
41201;SDS011;26936;50.524;8.684;2024-03-06T11:10:28;29.88;;;15.13;;
41201;SDS011;26936;50.524;8.684;2024-03-06T11:12:54;28.33;;;15.07;;
41201;SDS011;26936;50.524;8.684;2024-03-06T11:15:21;29.77;;;15.27;;
41201;SDS011;26936;50.524;8.684;2024-03-06T11:17:46;28.20;;;15.43;;
41201;SDS011;26936;50.524;8.684;2024-03-06T11:20:18;32.90;;;15.18;;
41201;SDS011;26936;50.524;8.684;2024-03-06T11:28:11;25.35;;;13.77;;
41201;SDS011;26936;50.524;8.684;2024-03-06T11:33:18;25.73;;;14.20;;
41201;SDS011;26936;50.524;8.684;2024-03-06T11:38:48;24.57;;;13.67;;
41201;SDS011;26936;50.524;8.684;2024-03-06T11:41:24;23.38;;;12.10;;
41201;SDS011;26936;50.524;8.684;2024-03-06T11:43:51;20.63;;;11.68;;
41201;SDS011;26936;50.524;8.684;2024-03-06T11:46:18;25.60;;;13.32;;
41201;SDS011;26936;50.524;8.684;2024-03-06T11:48:52;24.23;;;13.35;;
41201;SDS011;26936;50.524;8.684;2024-03-06T11:51:19;23.63;;;13.40;;
41201;SDS011;26936;50.524;8.684;2024-03-06T11:53:44;20.45;;;12.15;;
41201;SDS011;26936;50.524;8.684;2024-03-06T11:56:10;22.60;;;11.70;;
41201;SDS011;26936;50.524;8.684;2024-03-06T11:58:36;18.10;;;10.93;;
41201;SDS011;26936;50.524;8.684;2024-03-06T12:01:01;18.60;;;11.48;;
41201;SDS011;26936;50.524;8.684;2024-03-06T12:03:27;19.83;;;11.05;;
41201;SDS011;26936;50.524;8.684;2024-03-06T12:05:52;18.77;;;10.88;;
41201;SDS011;26936;50.524;8.684;2024-03-06T12:08:18;21.95;;;10.95;;
41201;SDS011;26936;50.524;8.684;2024-03-06T12:10:45;19.67;;;11.20;;
41201;SDS011;26936;50.524;8.684;2024-03-06T12:13:12;19.73;;;10.05;;
41201;SDS011;26936;50.524;8.684;2024-03-06T12:15:37;17.63;;;9.80;;
41201;SDS011;26936;50.524;8.684;2024-03-06T12:18:03;18.47;;;10.37;;
41201;SDS011;26936;50.524;8.684;2024-03-06T12:20:30;18.90;;;10.48;;
41201;SDS011;26936;50.524;8.684;2024-03-06T12:22:56;20.75;;;10.30;;
41201;SDS011;26936;50.524;8.684;2024-03-06T12:25:22;18.48;;;10.05;;
41201;SDS011;26936;50.524;8.684;2024-03-06T12:27:49;18.90;;;9.63;;
41201;SDS011;26936;50.524;8.684;2024-03-06T12:30:18;19.25;;;9.68;;
41201;SDS011;26936;50.524;8.684;2024-03-06T12:32:55;17.25;;;9.43;;
41201;SDS011;26936;50.524;8.684;2024-03-06T12:35:24;18.23;;;9.73;;
41201;SDS011;26936;50.524;8.684;2024-03-06T12:37:53;19.27;;;10.75;;
41201;SDS011;26936;50.524;8.684;2024-03-06T12:40:19;18.37;;;10.37;;
41201;SDS011;26936;50.524;8.684;2024-03-06T12:42:45;17.00;;;9.77;;
41201;SDS011;26936;50.524;8.684;2024-03-06T12:45:11;16.98;;;8.95;;
41201;SDS011;26936;50.524;8.684;2024-03-06T12:47:40;16.10;;;8.73;;
41201;SDS011;26936;50.524;8.684;2024-03-06T12:50:06;21.65;;;10.40;;
41201;SDS011;26936;50.524;8.684;2024-03-06T12:52:33;17.20;;;9.18;;
41201;SDS011;26936;50.524;8.684;2024-03-06T12:54:59;18.83;;;9.68;;
41201;SDS011;26936;50.524;8.684;2024-03-06T12:57:24;17.20;;;9.20;;
41201;SDS011;26936;50.524;8.684;2024-03-06T12:59:50;17.98;;;9.98;;
41201;SDS011;26936;50.524;8.684;2024-03-06T13:02:15;17.80;;;10.32;;
41201;SDS011;26936;50.524;8.684;2024-03-06T13:04:40;17.83;;;10.00;;
41201;SDS011;26936;50.524;8.684;2024-03-06T13:07:06;16.73;;;9.52;;
41201;SDS011;26936;50.524;8.684;2024-03-06T13:09:31;17.45;;;9.88;;
41201;SDS011;26936;50.524;8.684;2024-03-06T13:11:56;18.13;;;10.18;;
41201;SDS011;26936;50.524;8.684;2024-03-06T13:14:25;18.63;;;10.43;;
41201;SDS011;26936;50.524;8.684;2024-03-06T13:16:50;21.10;;;10.52;;
41201;SDS011;26936;50.524;8.684;2024-03-06T13:19:15;16.85;;;9.07;;
41201;SDS011;26936;50.524;8.684;2024-03-06T13:21:40;15.13;;;8.43;;
41201;SDS011;26936;50.524;8.684;2024-03-06T13:24:06;15.20;;;8.80;;
41201;SDS011;26936;50.524;8.684;2024-03-06T13:26:31;14.98;;;8.02;;
41201;SDS011;26936;50.524;8.684;2024-03-06T13:28:57;14.88;;;8.52;;
41201;SDS011;26936;50.524;8.684;2024-03-06T13:31:22;14.27;;;8.60;;
41201;SDS011;26936;50.524;8.684;2024-03-06T13:33:48;18.52;;;9.43;;
41201;SDS011;26936;50.524;8.684;2024-03-06T13:36:15;15.20;;;8.75;;
41201;SDS011;26936;50.524;8.684;2024-03-06T13:38:41;17.17;;;9.82;;
41201;SDS011;26936;50.524;8.684;2024-03-06T13:41:06;16.70;;;9.33;;
41201;SDS011;26936;50.524;8.684;2024-03-06T13:43:31;15.27;;;8.77;;
41201;SDS011;26936;50.524;8.684;2024-03-06T13:45:57;17.58;;;9.95;;
41201;SDS011;26936;50.524;8.684;2024-03-06T13:48:23;15.57;;;9.55;;
41201;SDS011;26936;50.524;8.684;2024-03-06T13:50:48;18.23;;;10.57;;
41201;SDS011;26936;50.524;8.684;2024-03-06T13:53:14;19.20;;;10.67;;
41201;SDS011;26936;50.524;8.684;2024-03-06T13:55:39;18.40;;;10.45;;
41201;SDS011;26936;50.524;8.684;2024-03-06T13:58:05;15.15;;;8.63;;
41201;SDS011;26936;50.524;8.684;2024-03-06T14:00:30;15.65;;;9.15;;
41201;SDS011;26936;50.524;8.684;2024-03-06T14:02:56;15.20;;;8.40;;
41201;SDS011;26936;50.524;8.684;2024-03-06T14:05:21;17.60;;;9.45;;
41201;SDS011;26936;50.524;8.684;2024-03-06T14:07:53;16.23;;;8.85;;
41201;SDS011;26936;50.524;8.684;2024-03-06T14:10:19;16.10;;;9.52;;
41201;SDS011;26936;50.524;8.684;2024-03-06T14:12:46;16.63;;;9.18;;
41201;SDS011;26936;50.524;8.684;2024-03-06T14:15:11;16.13;;;9.27;;
41201;SDS011;26936;50.524;8.684;2024-03-06T14:17:37;16.20;;;9.32;;
41201;SDS011;26936;50.524;8.684;2024-03-06T14:20:03;15.73;;;8.95;;
41201;SDS011;26936;50.524;8.684;2024-03-06T14:22:28;18.23;;;9.70;;
41201;SDS011;26936;50.524;8.684;2024-03-06T14:24:54;16.33;;;9.57;;
41201;SDS011;26936;50.524;8.684;2024-03-06T14:27:20;14.60;;;8.82;;